sensor_id;sensor_type;location;lat;lon;timestamp;P1;durP1;ratioP1;P2;durP2;ratioP2
80748;SDS011;70145;53.746;9.970;2023-06-22T00:01:02;2.55;;;1.77;;
80748;SDS011;70145;53.746;9.970;2023-06-22T00:03:27;2.67;;;1.92;;
80748;SDS011;70145;53.746;9.970;2023-06-22T00:05:52;2.15;;;1.63;;
80748;SDS011;70145;53.746;9.970;2023-06-22T00:08:18;2.92;;;1.83;;
80748;SDS011;70145;53.746;9.970;2023-06-22T00:10:45;3.28;;;1.92;;
80748;SDS011;70145;53.746;9.970;2023-06-22T00:13:11;3.28;;;2.10;;
80748;SDS011;70145;53.746;9.970;2023-06-22T00:15:38;2.83;;;1.85;;
80748;SDS011;70145;53.746;9.970;2023-06-22T00:18:08;3.00;;;1.88;;
80748;SDS011;70145;53.746;9.970;2023-06-22T00:20:35;2.30;;;1.55;;
80748;SDS011;70145;53.746;9.970;2023-06-22T00:23:04;3.75;;;2.25;;
80748;SDS011;70145;53.746;9.970;2023-06-22T00:25:40;2.47;;;1.80;;
80748;SDS011;70145;53.746;9.970;2023-06-22T00:28:05;2.70;;;1.98;;
80748;SDS011;70145;53.746;9.970;2023-06-22T00:30:32;2.47;;;1.60;;
80748;SDS011;70145;53.746;9.970;2023-06-22T00:32:58;2.90;;;1.90;;
80748;SDS011;70145;53.746;9.970;2023-06-22T00:35:24;2.90;;;1.80;;
80748;SDS011;70145;53.746;9.970;2023-06-22T00:37:56;3.28;;;2.05;;
80748;SDS011;70145;53.746;9.970;2023-06-22T00:40:29;3.88;;;1.92;;
80748;SDS011;70145;53.746;9.970;2023-06-22T00:42:55;2.47;;;1.63;;
80748;SDS011;70145;53.746;9.970;2023-06-22T00:45:20;3.53;;;1.95;;
80748;SDS011;70145;53.746;9.970;2023-06-22T00:47:48;2.72;;;2.13;;
80748;SDS011;70145;53.746;9.970;2023-06-22T00:50:16;2.10;;;1.50;;
80748;SDS011;70145;53.746;9.970;2023-06-22T00:52:47;2.80;;;1.80;;
80748;SDS011;70145;53.746;9.970;2023-06-22T00:55:15;2.80;;;1.90;;
80748;SDS011;70145;53.746;9.970;2023-06-22T00:57:43;3.63;;;2.10;;
80748;SDS011;70145;53.746;9.970;2023-06-22T01:00:10;3.20;;;2.08;;
80748;SDS011;70145;53.746;9.970;2023-06-22T01:02:44;2.35;;;1.67;;
80748;SDS011;70145;53.746;9.970;2023-06-22T01:05:17;2.15;;;1.67;;
80748;SDS011;70145;53.746;9.970;2023-06-22T01:08:06;2.90;;;1.85;;
80748;SDS011;70145;53.746;9.970;2023-06-22T01:16:02;3.03;;;2.13;;
80748;SDS011;70145;53.746;9.970;2023-06-22T01:18:32;2.60;;;1.80;;
80748;SDS011;70145;53.746;9.970;2023-06-22T01:21:01;3.47;;;2.10;;
80748;SDS011;70145;53.746;9.970;2023-06-22T01:23:37;2.17;;;1.70;;
80748;SDS011;70145;53.746;9.970;2023-06-22T01:26:21;2.38;;;1.70;;
80748;SDS011;70145;53.746;9.970;2023-06-22T01:28:54;2.22;;;1.60;;
80748;SDS011;70145;53.746;9.970;2023-06-22T01:31:24;3.05;;;2.20;;
80748;SDS011;70145;53.746;9.970;2023-06-22T01:33:52;2.85;;;2.20;;
80748;SDS011;70145;53.746;9.970;2023-06-22T01:36:19;3.05;;;2.00;;
80748;SDS011;70145;53.746;9.970;2023-06-22T01:38:47;3.20;;;1.60;;
80748;SDS011;70145;53.746;9.970;2023-06-22T01:41:13;2.55;;;1.83;;
80748;SDS011;70145;53.746;9.970;2023-06-22T01:43:39;2.83;;;2.28;;
80748;SDS011;70145;53.746;9.970;2023-06-22T01:46:05;2.75;;;2.08;;
80748;SDS011;70145;53.746;9.970;2023-06-22T01:48:31;4.22;;;1.98;;
80748;SDS011;70145;53.746;9.970;2023-06-22T01:50:57;2.33;;;1.50;;
80748;SDS011;70145;53.746;9.970;2023-06-22T01:53:23;2.15;;;1.60;;
80748;SDS011;70145;53.746;9.970;2023-06-22T01:55:48;2.40;;;1.85;;
80748;SDS011;70145;53.746;9.970;2023-06-22T01:58:14;3.05;;;1.90;;
80748;SDS011;70145;53.746;9.970;2023-06-22T02:00:40;2.63;;;1.85;;
80748;SDS011;70145;53.746;9.970;2023-06-22T02:03:11;3.40;;;1.98;;
80748;SDS011;70145;53.746;9.970;2023-06-22T02:05:46;2.60;;;1.98;;
80748;SDS011;70145;53.746;9.970;2023-06-22T02:08:28;2.47;;;1.52;;
80748;SDS011;70145;53.746;9.970;2023-06-22T02:10:56;3.22;;;1.80;;
80748;SDS011;70145;53.746;9.970;2023-06-22T02:13:24;2.97;;;1.73;;
80748;SDS011;70145;53.746;9.970;2023-06-22T02:15:50;3.67;;;1.80;;
80748;SDS011;70145;53.746;9.970;2023-06-22T02:18:16;2.50;;;1.85;;
80748;SDS011;70145;53.746;9.970;2023-06-22T02:20:41;2.20;;;1.57;;
80748;SDS011;70145;53.746;9.970;2023-06-22T02:23:07;2.58;;;1.80;;
80748;SDS011;70145;53.746;9.970;2023-06-22T02:25:32;1.83;;;1.60;;
80748;SDS011;70145;53.746;9.970;2023-06-22T02:27:59;2.42;;;1.73;;
80748;SDS011;70145;53.746;9.970;2023-06-22T02:30:24;7.38;;;3.45;;
80748;SDS011;70145;53.746;9.970;2023-06-22T02:32:50;3.40;;;1.73;;
80748;SDS011;70145;53.746;9.970;2023-06-22T02:35:23;3.40;;;1.90;;
80748;SDS011;70145;53.746;9.970;2023-06-22T02:37:48;4.18;;;2.05;;
80748;SDS011;70145;53.746;9.970;2023-06-22T02:40:16;3.15;;;1.90;;
80748;SDS011;70145;53.746;9.970;2023-06-22T02:42:42;3.60;;;2.03;;
80748;SDS011;70145;53.746;9.970;2023-06-22T02:45:07;2.25;;;1.60;;
80748;SDS011;70145;53.746;9.970;2023-06-22T02:47:33;3.22;;;1.83;;
80748;SDS011;70145;53.746;9.970;2023-06-22T02:49:58;2.67;;;2.37;;
80748;SDS011;70145;53.746;9.970;2023-06-22T02:52:23;3.13;;;2.03;;
80748;SDS011;70145;53.746;9.970;2023-06-22T02:54:49;3.53;;;2.00;;
80748;SDS011;70145;53.746;9.970;2023-06-22T02:57:14;2.77;;;1.93;;
80748;SDS011;70145;53.746;9.970;2023-06-22T02:59:40;3.20;;;2.03;;
80748;SDS011;70145;53.746;9.970;2023-06-22T03:02:06;2.88;;;1.90;;
80748;SDS011;70145;53.746;9.970;2023-06-22T03:04:32;3.15;;;2.45;;
80748;SDS011;70145;53.746;9.970;2023-06-22T03:06:58;2.33;;;2.05;;
80748;SDS011;70145;53.746;9.970;2023-06-22T03:09:26;3.55;;;2.33;;
80748;SDS011;70145;53.746;9.970;2023-06-22T03:11:54;2.72;;;2.00;;
80748;SDS011;70145;53.746;9.970;2023-06-22T03:14:20;3.88;;;2.30;;
80748;SDS011;70145;53.746;9.970;2023-06-22T03:16:46;3.28;;;2.40;;
80748;SDS011;70145;53.746;9.970;2023-06-22T03:19:11;3.08;;;2.03;;
80748;SDS011;70145;53.746;9.970;2023-06-22T03:21:37;3.85;;;2.33;;
80748;SDS011;70145;53.746;9.970;2023-06-22T03:24:04;3.50;;;2.17;;
80748;SDS011;70145;53.746;9.970;2023-06-22T03:26:30;3.92;;;2.30;;
80748;SDS011;70145;53.746;9.970;2023-06-22T03:28:55;2.67;;;2.10;;
80748;SDS011;70145;53.746;9.970;2023-06-22T03:31:21;3.15;;;2.33;;
80748;SDS011;70145;53.746;9.970;2023-06-22T03:33:47;3.90;;;2.47;;
80748;SDS011;70145;53.746;9.970;2023-06-22T03:36:14;3.88;;;2.50;;
80748;SDS011;70145;53.746;9.970;2023-06-22T03:38:43;4.30;;;2.35;;
80748;SDS011;70145;53.746;9.970;2023-06-22T03:41:09;3.35;;;2.25;;
80748;SDS011;70145;53.746;9.970;2023-06-22T03:43:34;3.87;;;2.40;;
80748;SDS011;70145;53.746;9.970;2023-06-22T03:45:59;2.90;;;1.93;;
80748;SDS011;70145;53.746;9.970;2023-06-22T03:48:24;2.92;;;2.20;;
80748;SDS011;70145;53.746;9.970;2023-06-22T03:50:50;3.30;;;2.60;;
80748;SDS011;70145;53.746;9.970;2023-06-22T03:53:15;3.17;;;2.63;;
80748;SDS011;70145;53.746;9.970;2023-06-22T03:55:47;3.53;;;2.55;;
80748;SDS011;70145;53.746;9.970;2023-06-22T03:58:14;5.18;;;2.70;;
80748;SDS011;70145;53.746;9.970;2023-06-22T04:00:39;3.30;;;2.30;;
80748;SDS011;70145;53.746;9.970;2023-06-22T04:03:04;4.70;;;3.33;;
80748;SDS011;70145;53.746;9.970;2023-06-22T04:05:32;4.05;;;2.85;;
80748;SDS011;70145;53.746;9.970;2023-06-22T04:07:57;3.47;;;2.67;;
80748;SDS011;70145;53.746;9.970;2023-06-22T04:10:23;4.00;;;2.70;;
80748;SDS011;70145;53.746;9.970;2023-06-22T04:12:48;4.40;;;3.03;;
80748;SDS011;70145;53.746;9.970;2023-06-22T04:15:14;4.20;;;2.70;;
80748;SDS011;70145;53.746;9.970;2023-06-22T04:17:39;4.90;;;3.25;;
80748;SDS011;70145;53.746;9.970;2023-06-22T04:20:05;4.70;;;2.73;;
80748;SDS011;70145;53.746;9.970;2023-06-22T04:22:30;4.40;;;2.70;;
80748;SDS011;70145;53.746;9.970;2023-06-22T04:24:56;4.97;;;3.57;;
80748;SDS011;70145;53.746;9.970;2023-06-22T04:27:21;4.68;;;2.78;;
80748;SDS011;70145;53.746;9.970;2023-06-22T04:29:48;8.43;;;3.38;;
80748;SDS011;70145;53.746;9.970;2023-06-22T04:32:14;4.80;;;2.63;;
80748;SDS011;70145;53.746;9.970;2023-06-22T04:34:42;4.43;;;3.05;;
80748;SDS011;70145;53.746;9.970;2023-06-22T04:37:09;4.63;;;2.70;;
80748;SDS011;70145;53.746;9.970;2023-06-22T04:39:34;6.10;;;3.53;;
80748;SDS011;70145;53.746;9.970;2023-06-22T04:41:59;5.22;;;4.03;;
80748;SDS011;70145;53.746;9.970;2023-06-22T04:44:25;6.13;;;3.13;;
80748;SDS011;70145;53.746;9.970;2023-06-22T04:46:55;6.72;;;3.58;;
80748;SDS011;70145;53.746;9.970;2023-06-22T04:49:27;6.22;;;4.38;;
80748;SDS011;70145;53.746;9.970;2023-06-22T04:52:01;4.68;;;3.10;;
80748;SDS011;70145;53.746;9.970;2023-06-22T04:54:28;5.78;;;3.78;;
80748;SDS011;70145;53.746;9.970;2023-06-22T04:56:53;6.10;;;3.70;;
80748;SDS011;70145;53.746;9.970;2023-06-22T04:59:22;5.55;;;3.70;;
80748;SDS011;70145;53.746;9.970;2023-06-22T05:01:52;5.13;;;3.65;;
80748;SDS011;70145;53.746;9.970;2023-06-22T05:04:18;7.07;;;4.38;;
80748;SDS011;70145;53.746;9.970;2023-06-22T05:06:44;4.13;;;3.30;;
80748;SDS011;70145;53.746;9.970;2023-06-22T05:09:10;6.03;;;3.40;;
80748;SDS011;70145;53.746;9.970;2023-06-22T05:11:37;5.53;;;3.78;;
80748;SDS011;70145;53.746;9.970;2023-06-22T05:14:02;5.57;;;3.92;;
80748;SDS011;70145;53.746;9.970;2023-06-22T05:16:27;5.97;;;4.07;;
80748;SDS011;70145;53.746;9.970;2023-06-22T05:18:53;5.18;;;3.33;;
80748;SDS011;70145;53.746;9.970;2023-06-22T05:21:23;5.80;;;3.75;;
80748;SDS011;70145;53.746;9.970;2023-06-22T05:23:49;6.38;;;3.40;;
80748;SDS011;70145;53.746;9.970;2023-06-22T05:26:15;6.03;;;3.22;;
80748;SDS011;70145;53.746;9.970;2023-06-22T05:28:40;6.37;;;3.40;;
80748;SDS011;70145;53.746;9.970;2023-06-22T05:31:06;5.43;;;3.93;;
80748;SDS011;70145;53.746;9.970;2023-06-22T05:33:31;5.77;;;3.23;;
80748;SDS011;70145;53.746;9.970;2023-06-22T05:35:56;4.37;;;2.93;;
80748;SDS011;70145;53.746;9.970;2023-06-22T05:38:21;6.00;;;2.73;;
80748;SDS011;70145;53.746;9.970;2023-06-22T05:40:47;5.33;;;3.00;;
80748;SDS011;70145;53.746;9.970;2023-06-22T05:43:12;4.73;;;2.60;;
80748;SDS011;70145;53.746;9.970;2023-06-22T05:45:37;4.63;;;2.58;;
80748;SDS011;70145;53.746;9.970;2023-06-22T05:48:03;5.03;;;2.90;;
80748;SDS011;70145;53.746;9.970;2023-06-22T05:50:28;3.97;;;2.80;;
80748;SDS011;70145;53.746;9.970;2023-06-22T05:52:53;4.70;;;2.67;;
80748;SDS011;70145;53.746;9.970;2023-06-22T05:55:19;4.10;;;2.33;;
80748;SDS011;70145;53.746;9.970;2023-06-22T05:57:44;4.43;;;2.80;;
80748;SDS011;70145;53.746;9.970;2023-06-22T06:00:10;3.55;;;2.38;;
80748;SDS011;70145;53.746;9.970;2023-06-22T06:02:36;3.92;;;2.38;;
80748;SDS011;70145;53.746;9.970;2023-06-22T06:05:02;4.90;;;2.65;;
80748;SDS011;70145;53.746;9.970;2023-06-22T06:07:28;3.38;;;2.38;;
80748;SDS011;70145;53.746;9.970;2023-06-22T06:09:54;4.35;;;2.33;;
80748;SDS011;70145;53.746;9.970;2023-06-22T06:12:19;3.10;;;2.43;;
80748;SDS011;70145;53.746;9.970;2023-06-22T06:14:44;4.90;;;2.60;;
80748;SDS011;70145;53.746;9.970;2023-06-22T06:17:10;3.55;;;2.03;;
80748;SDS011;70145;53.746;9.970;2023-06-22T06:19:35;3.27;;;2.23;;
80748;SDS011;70145;53.746;9.970;2023-06-22T06:22:00;3.30;;;2.00;;
80748;SDS011;70145;53.746;9.970;2023-06-22T06:24:26;4.20;;;2.30;;
80748;SDS011;70145;53.746;9.970;2023-06-22T06:26:51;3.08;;;1.90;;
80748;SDS011;70145;53.746;9.970;2023-06-22T06:29:16;2.95;;;2.00;;
80748;SDS011;70145;53.746;9.970;2023-06-22T06:31:42;4.27;;;2.30;;
80748;SDS011;70145;53.746;9.970;2023-06-22T06:34:07;2.80;;;1.88;;
80748;SDS011;70145;53.746;9.970;2023-06-22T06:36:32;3.10;;;1.83;;
80748;SDS011;70145;53.746;9.970;2023-06-22T06:38:57;2.60;;;1.90;;
80748;SDS011;70145;53.746;9.970;2023-06-22T06:41:23;3.17;;;1.70;;
80748;SDS011;70145;53.746;9.970;2023-06-22T06:43:48;3.85;;;2.05;;
80748;SDS011;70145;53.746;9.970;2023-06-22T06:46:14;2.78;;;1.95;;
80748;SDS011;70145;53.746;9.970;2023-06-22T06:48:39;3.20;;;1.50;;
80748;SDS011;70145;53.746;9.970;2023-06-22T06:51:05;2.80;;;1.65;;
80748;SDS011;70145;53.746;9.970;2023-06-22T06:53:31;3.70;;;1.75;;
80748;SDS011;70145;53.746;9.970;2023-06-22T06:55:56;3.28;;;1.70;;
80748;SDS011;70145;53.746;9.970;2023-06-22T06:58:22;3.00;;;1.60;;
80748;SDS011;70145;53.746;9.970;2023-06-22T07:00:47;2.35;;;1.33;;
80748;SDS011;70145;53.746;9.970;2023-06-22T07:03:13;3.05;;;1.45;;
80748;SDS011;70145;53.746;9.970;2023-06-22T07:05:39;2.55;;;1.63;;
80748;SDS011;70145;53.746;9.970;2023-06-22T07:08:04;3.08;;;1.92;;
80748;SDS011;70145;53.746;9.970;2023-06-22T07:10:30;3.53;;;1.40;;
80748;SDS011;70145;53.746;9.970;2023-06-22T07:12:55;2.13;;;1.40;;
80748;SDS011;70145;53.746;9.970;2023-06-22T07:15:22;2.42;;;1.40;;
80748;SDS011;70145;53.746;9.970;2023-06-22T07:17:47;3.30;;;1.30;;
80748;SDS011;70145;53.746;9.970;2023-06-22T07:20:12;2.50;;;1.50;;
80748;SDS011;70145;53.746;9.970;2023-06-22T07:22:38;2.75;;;1.42;;
80748;SDS011;70145;53.746;9.970;2023-06-22T07:25:04;3.22;;;1.20;;
80748;SDS011;70145;53.746;9.970;2023-06-22T07:27:35;3.45;;;1.38;;
80748;SDS011;70145;53.746;9.970;2023-06-22T07:30:07;3.67;;;1.80;;
80748;SDS011;70145;53.746;9.970;2023-06-22T07:32:33;1.88;;;1.42;;
80748;SDS011;70145;53.746;9.970;2023-06-22T07:34:59;3.30;;;1.50;;
80748;SDS011;70145;53.746;9.970;2023-06-22T07:37:24;2.53;;;1.25;;
80748;SDS011;70145;53.746;9.970;2023-06-22T07:39:52;1.95;;;1.65;;
80748;SDS011;70145;53.746;9.970;2023-06-22T07:42:18;3.00;;;1.58;;
80748;SDS011;70145;53.746;9.970;2023-06-22T07:44:44;3.17;;;1.52;;
80748;SDS011;70145;53.746;9.970;2023-06-22T07:47:09;1.73;;;1.20;;
80748;SDS011;70145;53.746;9.970;2023-06-22T07:49:35;2.27;;;1.43;;
80748;SDS011;70145;53.746;9.970;2023-06-22T07:52:00;2.70;;;1.73;;
80748;SDS011;70145;53.746;9.970;2023-06-22T07:54:26;1.98;;;1.60;;
80748;SDS011;70145;53.746;9.970;2023-06-22T07:56:52;2.93;;;1.80;;
80748;SDS011;70145;53.746;9.970;2023-06-22T07:59:18;2.00;;;1.40;;
80748;SDS011;70145;53.746;9.970;2023-06-22T08:01:43;2.10;;;1.70;;
80748;SDS011;70145;53.746;9.970;2023-06-22T08:04:09;3.35;;;1.38;;
80748;SDS011;70145;53.746;9.970;2023-06-22T08:06:34;2.13;;;1.10;;
80748;SDS011;70145;53.746;9.970;2023-06-22T08:08:59;2.58;;;1.23;;
80748;SDS011;70145;53.746;9.970;2023-06-22T08:11:25;2.42;;;1.42;;
80748;SDS011;70145;53.746;9.970;2023-06-22T08:13:50;3.28;;;1.88;;
80748;SDS011;70145;53.746;9.970;2023-06-22T08:16:16;3.08;;;1.70;;
80748;SDS011;70145;53.746;9.970;2023-06-22T08:18:41;2.42;;;1.67;;
80748;SDS011;70145;53.746;9.970;2023-06-22T08:21:07;1.85;;;1.30;;
80748;SDS011;70145;53.746;9.970;2023-06-22T08:23:32;2.27;;;1.33;;
80748;SDS011;70145;53.746;9.970;2023-06-22T08:25:57;2.00;;;1.17;;
80748;SDS011;70145;53.746;9.970;2023-06-22T08:28:23;2.70;;;1.50;;
80748;SDS011;70145;53.746;9.970;2023-06-22T08:30:48;3.03;;;1.35;;
80748;SDS011;70145;53.746;9.970;2023-06-22T08:33:13;1.90;;;1.50;;
80748;SDS011;70145;53.746;9.970;2023-06-22T08:35:38;1.87;;;1.40;;
80748;SDS011;70145;53.746;9.970;2023-06-22T08:38:04;1.63;;;1.23;;
80748;SDS011;70145;53.746;9.970;2023-06-22T08:40:29;2.60;;;1.38;;
80748;SDS011;70145;53.746;9.970;2023-06-22T08:42:55;3.55;;;1.38;;
80748;SDS011;70145;53.746;9.970;2023-06-22T08:45:20;1.67;;;1.08;;
80748;SDS011;70145;53.746;9.970;2023-06-22T08:47:45;2.70;;;1.50;;
80748;SDS011;70145;53.746;9.970;2023-06-22T08:50:11;2.20;;;1.23;;
80748;SDS011;70145;53.746;9.970;2023-06-22T08:52:37;2.33;;;1.00;;
80748;SDS011;70145;53.746;9.970;2023-06-22T08:55:06;3.90;;;1.55;;
80748;SDS011;70145;53.746;9.970;2023-06-22T08:57:32;2.20;;;1.25;;
80748;SDS011;70145;53.746;9.970;2023-06-22T08:59:57;2.20;;;1.10;;
80748;SDS011;70145;53.746;9.970;2023-06-22T09:02:23;1.58;;;0.93;;
80748;SDS011;70145;53.746;9.970;2023-06-22T09:04:49;1.88;;;1.35;;
80748;SDS011;70145;53.746;9.970;2023-06-22T09:07:21;1.90;;;1.00;;
80748;SDS011;70145;53.746;9.970;2023-06-22T09:09:48;1.80;;;1.20;;
80748;SDS011;70145;53.746;9.970;2023-06-22T09:12:14;2.42;;;1.20;;
80748;SDS011;70145;53.746;9.970;2023-06-22T09:14:39;2.35;;;1.27;;
80748;SDS011;70145;53.746;9.970;2023-06-22T09:17:04;2.05;;;1.02;;
80748;SDS011;70145;53.746;9.970;2023-06-22T09:19:30;2.38;;;1.00;;
80748;SDS011;70145;53.746;9.970;2023-06-22T09:21:55;1.70;;;0.82;;
80748;SDS011;70145;53.746;9.970;2023-06-22T09:24:20;2.67;;;1.52;;
80748;SDS011;70145;53.746;9.970;2023-06-22T09:26:46;3.30;;;1.10;;
80748;SDS011;70145;53.746;9.970;2023-06-22T09:29:11;2.65;;;1.20;;
80748;SDS011;70145;53.746;9.970;2023-06-22T09:31:36;2.07;;;1.30;;
80748;SDS011;70145;53.746;9.970;2023-06-22T09:34:02;2.10;;;1.40;;
80748;SDS011;70145;53.746;9.970;2023-06-22T09:36:27;2.90;;;1.30;;
80748;SDS011;70145;53.746;9.970;2023-06-22T09:38:52;2.67;;;1.50;;
80748;SDS011;70145;53.746;9.970;2023-06-22T09:41:20;1.70;;;1.20;;
80748;SDS011;70145;53.746;9.970;2023-06-22T09:43:45;3.75;;;1.40;;
80748;SDS011;70145;53.746;9.970;2023-06-22T09:46:10;1.90;;;1.40;;
80748;SDS011;70145;53.746;9.970;2023-06-22T09:48:36;3.37;;;1.30;;
80748;SDS011;70145;53.746;9.970;2023-06-22T09:51:01;2.50;;;1.38;;
80748;SDS011;70145;53.746;9.970;2023-06-22T09:53:26;4.32;;;1.42;;
80748;SDS011;70145;53.746;9.970;2023-06-22T09:55:53;2.58;;;1.50;;
80748;SDS011;70145;53.746;9.970;2023-06-22T09:58:18;2.30;;;1.60;;
80748;SDS011;70145;53.746;9.970;2023-06-22T10:00:44;2.37;;;1.37;;
80748;SDS011;70145;53.746;9.970;2023-06-22T10:03:09;2.10;;;1.40;;
80748;SDS011;70145;53.746;9.970;2023-06-22T10:05:34;1.80;;;1.37;;
80748;SDS011;70145;53.746;9.970;2023-06-22T10:07:59;2.27;;;1.40;;
80748;SDS011;70145;53.746;9.970;2023-06-22T10:10:25;4.23;;;2.00;;
80748;SDS011;70145;53.746;9.970;2023-06-22T10:12:57;1.90;;;1.50;;
80748;SDS011;70145;53.746;9.970;2023-06-22T10:15:27;3.85;;;2.00;;
80748;SDS011;70145;53.746;9.970;2023-06-22T10:17:52;1.92;;;1.42;;
80748;SDS011;70145;53.746;9.970;2023-06-22T10:20:18;2.27;;;1.50;;
80748;SDS011;70145;53.746;9.970;2023-06-22T10:22:44;2.60;;;1.85;;
80748;SDS011;70145;53.746;9.970;2023-06-22T10:25:10;2.65;;;1.85;;
80748;SDS011;70145;53.746;9.970;2023-06-22T10:27:37;2.47;;;1.45;;
80748;SDS011;70145;53.746;9.970;2023-06-22T10:30:06;2.90;;;1.77;;
80748;SDS011;70145;53.746;9.970;2023-06-22T10:32:39;1.83;;;1.60;;
80748;SDS011;70145;53.746;9.970;2023-06-22T10:35:05;2.47;;;1.67;;
80748;SDS011;70145;53.746;9.970;2023-06-22T10:37:30;3.38;;;1.55;;
80748;SDS011;70145;53.746;9.970;2023-06-22T10:39:56;3.60;;;2.08;;
80748;SDS011;70145;53.746;9.970;2023-06-22T10:42:21;3.88;;;2.15;;
80748;SDS011;70145;53.746;9.970;2023-06-22T10:44:47;3.22;;;1.73;;
80748;SDS011;70145;53.746;9.970;2023-06-22T10:47:12;5.07;;;2.23;;
80748;SDS011;70145;53.746;9.970;2023-06-22T10:49:40;2.22;;;1.60;;
80748;SDS011;70145;53.746;9.970;2023-06-22T10:52:06;3.47;;;2.08;;
80748;SDS011;70145;53.746;9.970;2023-06-22T10:54:34;4.05;;;2.08;;
80748;SDS011;70145;53.746;9.970;2023-06-22T10:57:00;2.28;;;1.63;;
80748;SDS011;70145;53.746;9.970;2023-06-22T10:59:26;2.65;;;1.90;;
80748;SDS011;70145;53.746;9.970;2023-06-22T11:01:52;2.78;;;1.73;;
80748;SDS011;70145;53.746;9.970;2023-06-22T11:04:18;2.53;;;1.65;;
80748;SDS011;70145;53.746;9.970;2023-06-22T11:06:43;3.90;;;1.70;;
80748;SDS011;70145;53.746;9.970;2023-06-22T11:09:09;2.83;;;1.70;;
80748;SDS011;70145;53.746;9.970;2023-06-22T11:11:34;2.20;;;1.83;;
80748;SDS011;70145;53.746;9.970;2023-06-22T11:13:59;3.10;;;1.90;;
80748;SDS011;70145;53.746;9.970;2023-06-22T11:16:24;2.55;;;1.70;;
80748;SDS011;70145;53.746;9.970;2023-06-22T11:18:50;2.17;;;1.90;;
80748;SDS011;70145;53.746;9.970;2023-06-22T11:21:15;2.08;;;1.80;;
80748;SDS011;70145;53.746;9.970;2023-06-22T11:23:41;2.85;;;2.00;;
80748;SDS011;70145;53.746;9.970;2023-06-22T11:26:07;2.65;;;1.75;;
80748;SDS011;70145;53.746;9.970;2023-06-22T11:28:32;3.22;;;2.28;;
80748;SDS011;70145;53.746;9.970;2023-06-22T11:30:58;2.63;;;2.00;;
80748;SDS011;70145;53.746;9.970;2023-06-22T11:33:23;3.53;;;2.60;;
80748;SDS011;70145;53.746;9.970;2023-06-22T11:35:49;3.50;;;2.50;;
80748;SDS011;70145;53.746;9.970;2023-06-22T11:38:14;3.00;;;2.42;;
80748;SDS011;70145;53.746;9.970;2023-06-22T11:40:39;3.67;;;2.95;;
80748;SDS011;70145;53.746;9.970;2023-06-22T11:43:05;3.03;;;2.27;;
80748;SDS011;70145;53.746;9.970;2023-06-22T11:45:30;2.13;;;1.87;;
80748;SDS011;70145;53.746;9.970;2023-06-22T11:47:55;3.63;;;2.47;;
80748;SDS011;70145;53.746;9.970;2023-06-22T11:50:20;3.08;;;2.53;;
80748;SDS011;70145;53.746;9.970;2023-06-22T11:52:46;4.13;;;2.67;;
80748;SDS011;70145;53.746;9.970;2023-06-22T11:55:11;3.83;;;2.20;;
80748;SDS011;70145;53.746;9.970;2023-06-22T11:57:37;3.53;;;2.42;;
80748;SDS011;70145;53.746;9.970;2023-06-22T12:00:16;3.88;;;2.00;;
80748;SDS011;70145;53.746;9.970;2023-06-22T12:02:43;3.25;;;2.47;;
80748;SDS011;70145;53.746;9.970;2023-06-22T12:05:09;3.88;;;2.40;;
80748;SDS011;70145;53.746;9.970;2023-06-22T12:07:35;2.90;;;2.60;;
80748;SDS011;70145;53.746;9.970;2023-06-22T12:10:01;2.00;;;1.80;;
80748;SDS011;70145;53.746;9.970;2023-06-22T12:12:27;3.38;;;2.22;;
80748;SDS011;70145;53.746;9.970;2023-06-22T12:14:52;4.13;;;2.40;;
80748;SDS011;70145;53.746;9.970;2023-06-22T12:17:17;3.03;;;2.00;;
80748;SDS011;70145;53.746;9.970;2023-06-22T12:19:43;2.87;;;2.20;;
80748;SDS011;70145;53.746;9.970;2023-06-22T12:22:08;2.73;;;2.10;;
80748;SDS011;70145;53.746;9.970;2023-06-22T12:24:33;2.77;;;2.40;;
80748;SDS011;70145;53.746;9.970;2023-06-22T12:26:58;3.07;;;2.77;;
80748;SDS011;70145;53.746;9.970;2023-06-22T12:29:24;3.37;;;2.60;;
80748;SDS011;70145;53.746;9.970;2023-06-22T12:31:49;3.22;;;2.75;;
80748;SDS011;70145;53.746;9.970;2023-06-22T12:34:14;3.33;;;2.77;;
80748;SDS011;70145;53.746;9.970;2023-06-22T12:36:40;5.30;;;2.37;;
80748;SDS011;70145;53.746;9.970;2023-06-22T12:39:05;3.28;;;2.90;;
80748;SDS011;70145;53.746;9.970;2023-06-22T12:41:33;4.13;;;2.70;;
80748;SDS011;70145;53.746;9.970;2023-06-22T12:43:58;4.07;;;2.63;;
80748;SDS011;70145;53.746;9.970;2023-06-22T12:46:24;2.73;;;2.33;;
80748;SDS011;70145;53.746;9.970;2023-06-22T12:48:49;3.43;;;2.67;;
80748;SDS011;70145;53.746;9.970;2023-06-22T12:51:20;2.90;;;2.60;;
80748;SDS011;70145;53.746;9.970;2023-06-22T12:53:47;3.70;;;2.42;;
80748;SDS011;70145;53.746;9.970;2023-06-22T12:56:12;3.28;;;2.53;;
80748;SDS011;70145;53.746;9.970;2023-06-22T12:58:37;3.27;;;2.73;;
80748;SDS011;70145;53.746;9.970;2023-06-22T13:01:03;3.17;;;2.47;;
80748;SDS011;70145;53.746;9.970;2023-06-22T13:03:28;3.10;;;2.50;;
80748;SDS011;70145;53.746;9.970;2023-06-22T13:05:54;3.47;;;2.40;;
80748;SDS011;70145;53.746;9.970;2023-06-22T13:08:19;4.10;;;2.65;;
80748;SDS011;70145;53.746;9.970;2023-06-22T13:10:44;2.78;;;2.58;;
80748;SDS011;70145;53.746;9.970;2023-06-22T13:13:10;4.40;;;2.63;;
80748;SDS011;70145;53.746;9.970;2023-06-22T13:15:35;3.20;;;2.67;;
80748;SDS011;70145;53.746;9.970;2023-06-22T13:18:00;3.60;;;2.47;;
80748;SDS011;70145;53.746;9.970;2023-06-22T13:20:25;3.17;;;2.60;;
80748;SDS011;70145;53.746;9.970;2023-06-22T13:22:51;3.67;;;2.60;;
80748;SDS011;70145;53.746;9.970;2023-06-22T13:25:16;2.97;;;2.35;;
80748;SDS011;70145;53.746;9.970;2023-06-22T13:27:44;3.10;;;2.45;;
80748;SDS011;70145;53.746;9.970;2023-06-22T13:30:09;3.97;;;2.85;;
80748;SDS011;70145;53.746;9.970;2023-06-22T13:32:35;2.97;;;2.60;;
80748;SDS011;70145;53.746;9.970;2023-06-22T13:35:00;3.97;;;3.10;;
80748;SDS011;70145;53.746;9.970;2023-06-22T13:37:26;4.07;;;2.63;;
80748;SDS011;70145;53.746;9.970;2023-06-22T13:39:51;3.43;;;2.33;;
80748;SDS011;70145;53.746;9.970;2023-06-22T13:42:17;4.55;;;3.20;;
80748;SDS011;70145;53.746;9.970;2023-06-22T13:44:42;3.08;;;2.78;;
80748;SDS011;70145;53.746;9.970;2023-06-22T13:47:07;4.05;;;2.72;;
80748;SDS011;70145;53.746;9.970;2023-06-22T13:49:33;4.00;;;2.50;;
80748;SDS011;70145;53.746;9.970;2023-06-22T13:51:58;3.57;;;2.50;;
80748;SDS011;70145;53.746;9.970;2023-06-22T13:54:24;3.70;;;3.33;;
80748;SDS011;70145;53.746;9.970;2023-06-22T13:56:49;3.83;;;3.00;;
80748;SDS011;70145;53.746;9.970;2023-06-22T13:59:14;4.63;;;3.00;;
80748;SDS011;70145;53.746;9.970;2023-06-22T14:01:40;3.60;;;3.03;;
80748;SDS011;70145;53.746;9.970;2023-06-22T14:04:08;5.13;;;3.05;;
80748;SDS011;70145;53.746;9.970;2023-06-22T14:06:34;4.20;;;3.20;;
80748;SDS011;70145;53.746;9.970;2023-06-22T14:08:59;3.40;;;2.63;;
80748;SDS011;70145;53.746;9.970;2023-06-22T14:11:24;3.10;;;2.47;;
80748;SDS011;70145;53.746;9.970;2023-06-22T14:13:50;3.28;;;2.55;;
80748;SDS011;70145;53.746;9.970;2023-06-22T14:16:15;2.70;;;2.50;;
80748;SDS011;70145;53.746;9.970;2023-06-22T14:18:40;3.50;;;3.17;;
80748;SDS011;70145;53.746;9.970;2023-06-22T14:21:06;3.50;;;2.63;;
80748;SDS011;70145;53.746;9.970;2023-06-22T14:23:31;3.20;;;2.63;;
80748;SDS011;70145;53.746;9.970;2023-06-22T14:25:56;3.50;;;3.20;;
80748;SDS011;70145;53.746;9.970;2023-06-22T14:28:22;3.53;;;3.10;;
80748;SDS011;70145;53.746;9.970;2023-06-22T14:30:47;3.65;;;3.13;;
80748;SDS011;70145;53.746;9.970;2023-06-22T14:33:12;5.23;;;3.00;;
80748;SDS011;70145;53.746;9.970;2023-06-22T14:35:38;3.47;;;2.95;;
80748;SDS011;70145;53.746;9.970;2023-06-22T14:38:03;4.20;;;3.80;;
80748;SDS011;70145;53.746;9.970;2023-06-22T14:40:29;3.80;;;3.13;;
80748;SDS011;70145;53.746;9.970;2023-06-22T14:42:54;4.50;;;3.53;;
80748;SDS011;70145;53.746;9.970;2023-06-22T14:45:21;3.67;;;3.25;;
80748;SDS011;70145;53.746;9.970;2023-06-22T14:47:47;4.68;;;3.90;;